Time;durP1;ratioP1;P1;durP2;ratioP2;P2;SDS_P1;SDS_P2;PMS_P1;PMS_P2;Temp;Humidity;BMP_temperature;BMP_pressure;BME280_temperature;BME280_humidity;BME280_pressure;Samples;Min_cycle;Max_cycle;Signal;HPM_P1;HPM_P2
2021/01/22 00:01:16;;;;;;;1.75;0.77;;;8.70;99.90;;;;;;5028801;28;20034;-46
2021/01/22 00:03:41;;;;;;;2.22;1.05;;;8.70;99.90;;;;;;5029399;28;20071;-44
2021/01/22 00:06:07;;;;;;;2.55;0.93;;;8.80;99.90;;;;;;5028658;28;20030;-44
2021/01/22 00:08:32;;;;;;;1.17;1.08;;;8.80;99.90;;;;;;5028980;28;20803;-44
2021/01/22 00:10:58;;;;;;;2.00;1.25;;;8.90;99.90;;;;;;5029061;28;20030;-44
2021/01/22 00:13:24;;;;;;;3.22;1.13;;;8.80;99.90;;;;;;5028799;28;20026;-44
2021/01/22 00:15:50;;;;;;;1.52;1.10;;;8.90;99.90;;;;;;5028847;28;20028;-43
2021/01/22 00:18:15;;;;;;;1.83;1.20;;;8.90;99.90;;;;;;5028916;28;20591;-44
2021/01/22 00:20:41;;;;;;;1.52;1.10;;;8.90;99.90;;;;;;5028805;28;20033;-44
2021/01/22 00:23:06;;;;;;;1.27;0.80;;;8.90;99.90;;;;;;5029077;28;20103;-45
2021/01/22 00:25:32;;;;;;;1.52;0.98;;;8.90;99.90;;;;;;5028144;28;20045;-46
2021/01/22 00:27:57;;;;;;;1.13;0.90;;;9.00;99.90;;;;;;5026606;28;20029;-45
2021/01/22 00:30:23;;;;;;;1.15;0.95;;;9.00;99.90;;;;;;5028772;28;20026;-44
2021/01/22 00:32:49;;;;;;;2.35;1.00;;;9.10;99.90;;;;;;5028489;28;20518;-43
2021/01/22 00:35:14;;;;;;;3.72;1.10;;;9.10;99.90;;;;;;5027782;28;20026;-43
2021/01/22 00:37:40;;;;;;;0.90;0.80;;;9.30;99.90;;;;;;5028672;28;20029;-44
2021/01/22 00:40:07;;;;;;;2.17;0.90;;;9.40;99.90;;;;;;5027332;28;20047;-44
2021/01/22 00:42:33;;;;;;;2.35;0.85;;;9.40;99.90;;;;;;5026875;28;20045;-43
2021/01/22 00:44:58;;;;;;;2.75;1.10;;;9.60;99.90;;;;;;5028014;28;20028;-44
2021/01/22 00:47:24;;;;;;;3.25;0.80;;;9.80;99.90;;;;;;5027502;28;20360;-45
2021/01/22 00:49:49;;;;;;;1.65;1.00;;;9.80;99.90;;;;;;5028672;28;20171;-44
2021/01/22 00:52:15;;;;;;;1.15;0.90;;;9.90;99.90;;;;;;5028757;28;20044;-44
2021/01/22 00:54:40;;;;;;;1.83;0.98;;;9.90;99.90;;;;;;5028493;28;20453;-44
2021/01/22 00:57:06;;;;;;;2.30;0.90;;;10.10;99.90;;;;;;5027957;28;20032;-46
2021/01/22 00:59:31;;;;;;;4.20;1.58;;;10.10;99.90;;;;;;5028832;28;20037;-44
2021/01/22 01:01:57;;;;;;;1.23;0.80;;;10.30;99.90;;;;;;5027334;28;20025;-45
2021/01/22 01:04:22;;;;;;;1.10;0.98;;;10.30;99.90;;;;;;5028098;28;20188;-44
2021/01/22 01:06:48;;;;;;;1.00;0.80;;;10.40;99.90;;;;;;5027108;28;20146;-44
2021/01/22 01:09:13;;;;;;;2.00;0.90;;;10.50;99.90;;;;;;5032371;28;20452;-44
2021/01/22 01:11:39;;;;;;;1.55;0.90;;;10.50;99.90;;;;;;5032417;28;20025;-44
2021/01/22 01:14:04;;;;;;;1.85;1.00;;;10.50;99.90;;;;;;5032581;28;20089;-44
2021/01/22 01:16:30;;;;;;;1.02;0.82;;;10.50;99.90;;;;;;5031762;28;20108;-44
2021/01/22 01:18:55;;;;;;;2.28;0.77;;;10.60;99.90;;;;;;5032811;28;20360;-44
2021/01/22 01:21:21;;;;;;;0.82;0.80;;;10.60;99.90;;;;;;5032214;28;20459;-43
2021/01/22 01:23:46;;;;;;;3.10;0.70;;;10.60;99.90;;;;;;5030797;28;20030;-43
2021/01/22 01:26:12;;;;;;;1.30;0.90;;;10.70;99.90;;;;;;5030639;28;20465;-45
2021/01/22 01:28:37;;;;;;;1.55;0.90;;;10.80;99.90;;;;;;5031717;28;20026;-45
2021/01/22 01:31:03;;;;;;;2.83;0.93;;;10.70;99.90;;;;;;5032153;28;20048;-45
2021/01/22 01:33:28;;;;;;;1.45;0.80;;;10.70;99.90;;;;;;5031824;28;20490;-44
2021/01/22 01:35:54;;;;;;;1.00;0.88;;;10.70;99.90;;;;;;5030168;28;20060;-44
2021/01/22 01:38:21;;;;;;;2.47;0.90;;;10.70;99.90;;;;;;5029776;28;20029;-45
2021/01/22 01:40:48;;;;;;;1.30;0.95;;;10.70;99.90;;;;;;5030418;28;20034;-43
2021/01/22 01:43:14;;;;;;;2.78;1.00;;;10.70;99.90;;;;;;5030383;28;20033;-45
2021/01/22 01:45:41;;;;;;;1.45;1.08;;;10.70;99.90;;;;;;5031249;28;20442;-45
2021/01/22 01:48:10;;;;;;;1.05;0.80;;;10.60;99.90;;;;;;5031653;28;20073;-46
2021/01/22 01:50:37;;;;;;;1.17;1.05;;;10.60;99.90;;;;;;5031575;28;20033;-44
2021/01/22 01:53:03;;;;;;;1.92;1.00;;;10.60;99.90;;;;;;5032054;28;20022;-44
2021/01/22 01:55:31;;;;;;;1.13;0.90;;;10.60;99.90;;;;;;5030351;28;20034;-45
2021/01/22 01:57:57;;;;;;;1.10;1.00;;;10.50;99.90;;;;;;5031406;28;20422;-44
2021/01/22 02:00:22;;;;;;;2.75;1.00;;;10.50;99.90;;;;;;5031570;28;20022;-43
2021/01/22 02:02:48;;;;;;;1.58;1.40;;;10.50;99.90;;;;;;5031397;28;20021;-45
2021/01/22 02:05:14;;;;;;;3.35;1.20;;;10.50;99.90;;;;;;5030873;28;20029;-44
2021/01/22 02:07:39;;;;;;;1.75;1.00;;;10.60;99.90;;;;;;5031733;28;20026;-44
2021/01/22 02:10:06;;;;;;;1.70;1.02;;;10.50;99.90;;;;;;5031407;28;20026;-44
2021/01/22 02:12:33;;;;;;;1.00;0.90;;;10.60;99.90;;;;;;5030977;28;20483;-43
2021/01/22 02:15:00;;;;;;;2.50;1.02;;;10.50;99.90;;;;;;5030663;28;20395;-42
2021/01/22 02:17:25;;;;;;;1.55;0.95;;;10.60;99.90;;;;;;5031269;28;20111;-44
2021/01/22 02:20:03;;;;;;;1.75;1.00;;;10.60;99.90;;;;;;5030334;28;20491;-44
2021/01/22 02:22:29;;;;;;;1.30;0.90;;;10.60;99.90;;;;;;5031063;28;20036;-44
2021/01/22 02:24:57;;;;;;;4.10;1.05;;;10.60;99.90;;;;;;5030533;28;20342;-44
2021/01/22 02:27:23;;;;;;;2.03;1.00;;;10.60;99.90;;;;;;5030572;28;20021;-44
2021/01/22 02:29:49;;;;;;;2.17;0.90;;;10.60;99.90;;;;;;5030867;28;20026;-44
2021/01/22 02:32:16;;;;;;;2.03;1.00;;;10.70;99.90;;;;;;5030660;28;20025;-44
2021/01/22 02:34:43;;;;;;;1.38;1.10;;;10.60;99.90;;;;;;5029170;28;20036;-44
2021/01/22 02:37:13;;;;;;;1.45;0.90;;;10.60;99.90;;;;;;5030891;28;20105;-44
2021/01/22 02:39:42;;;;;;;2.43;1.10;;;10.60;99.90;;;;;;5030765;28;20495;-44
2021/01/22 02:42:09;;;;;;;1.20;0.93;;;10.60;99.90;;;;;;5030520;28;20022;-44
2021/01/22 02:44:37;;;;;;;2.92;2.05;;;10.60;99.90;;;;;;5029975;28;20452;-45
2021/01/22 02:47:10;;;;;;;2.25;1.05;;;10.60;99.90;;;;;;5030778;28;20033;-44
2021/01/22 02:49:36;;;;;;;3.00;1.35;;;10.60;99.90;;;;;;5030552;28;20037;-43
2021/01/22 02:52:02;;;;;;;1.67;1.00;;;10.60;99.90;;;;;;5030508;28;20258;-45
2021/01/22 02:54:28;;;;;;;2.45;1.10;;;10.70;99.90;;;;;;5030442;28;20044;-44
2021/01/22 02:57:10;;;;;;;4.15;0.90;;;10.80;99.90;;;;;;5029616;28;20033;-45
2021/01/22 02:59:48;;;;;;;2.15;0.90;;;10.70;99.90;;;;;;5030587;28;20053;-43
2021/01/22 03:02:45;;;;;;;2.65;1.15;;;10.70;99.90;;;;;;5030820;28;20029;-44
2021/01/22 03:05:15;;;;;;;3.53;1.58;;;10.70;99.90;;;;;;5030039;28;20471;-45
2021/01/22 03:07:55;;;;;;;1.70;1.10;;;10.70;99.90;;;;;;5030161;28;20037;-43
2021/01/22 03:10:22;;;;;;;2.00;1.50;;;10.70;99.90;;;;;;5029808;28;20398;-43
2021/01/22 03:12:50;;;;;;;1.50;1.33;;;10.80;99.90;;;;;;5029688;28;20021;-42
2021/01/22 03:15:17;;;;;;;2.58;1.20;;;10.80;99.90;;;;;;5029510;28;20481;-44
2021/01/22 03:17:43;;;;;;;2.65;1.30;;;10.80;99.90;;;;;;5030033;28;20096;-47
2021/01/22 03:20:14;;;;;;;1.85;0.90;;;10.90;99.90;;;;;;5029994;28;20155;-44
2021/01/22 03:22:39;;;;;;;;;;;10.90;99.90;;;;;;5030334;28;20044;-45
2021/01/22 03:25:05;;;;;;;4.82;1.58;;;10.90;99.90;;;;;;5029279;28;20401;-44
2021/01/22 03:27:31;;;;;;;4.50;1.27;;;11.00;99.90;;;;;;5028936;28;20029;-43
2021/01/22 03:29:57;;;;;;;5.97;1.45;;;10.90;99.90;;;;;;5028026;28;20160;-43
2021/01/22 03:32:22;;;;;;;2.50;1.08;;;11.00;99.90;;;;;;5028578;28;20029;-44
2021/01/22 03:34:47;;;;;;;3.03;1.30;;;11.00;99.90;;;;;;5029082;28;20040;-43
2021/01/22 03:37:13;;;;;;;3.08;1.98;;;11.00;99.90;;;;;;5029911;28;20413;-45
2021/01/22 03:39:38;;;;;;;3.22;1.38;;;11.00;99.90;;;;;;5029790;28;20029;-44
2021/01/22 03:42:04;;;;;;;3.70;1.27;;;11.00;99.90;;;;;;5029851;28;20053;-44
2021/01/22 03:44:30;;;;;;;3.05;1.38;;;11.00;99.90;;;;;;5028559;28;20107;-46
2021/01/22 03:46:56;;;;;;;3.47;1.27;;;11.00;99.90;;;;;;5029616;28;20034;-46
2021/01/22 03:49:21;;;;;;;3.58;1.00;;;11.10;99.90;;;;;;5029397;28;20079;-44
2021/01/22 03:51:47;;;;;;;2.88;1.35;;;11.10;99.90;;;;;;5029629;28;20410;-43
2021/01/22 03:54:12;;;;;;;2.55;1.33;;;11.00;99.90;;;;;;5029555;28;20343;-44
2021/01/22 03:56:37;;;;;;;2.17;1.20;;;11.00;99.90;;;;;;5026145;28;20394;-44
2021/01/22 03:59:03;;;;;;;6.30;1.38;;;11.00;99.90;;;;;;5027850;28;20025;-46
2021/01/22 04:01:30;;;;;;;2.67;1.20;;;11.10;99.90;;;;;;5029195;28;20152;-44
2021/01/22 04:03:55;;;;;;;3.17;1.20;;;11.10;99.90;;;;;;5029148;28;20029;-43
2021/01/22 04:06:21;;;;;;;4.25;1.20;;;11.20;99.90;;;;;;5028603;28;20025;-44
2021/01/22 04:08:46;;;;;;;4.78;1.50;;;11.20;99.90;;;;;;5028889;28;20036;-44
2021/01/22 04:11:12;;;;;;;3.65;1.10;;;11.20;99.90;;;;;;5028809;28;20542;-44
2021/01/22 04:13:37;;;;;;;3.55;1.00;;;11.20;99.90;;;;;;5029106;28;20104;-45
2021/01/22 04:16:04;;;;;;;1.98;1.38;;;11.20;99.90;;;;;;5028396;28;20474;-44
2021/01/22 04:18:29;;;;;;;2.05;1.20;;;11.20;99.90;;;;;;5028760;28;20094;-43
2021/01/22 04:20:55;;;;;;;3.50;1.52;;;11.20;99.90;;;;;;5028944;28;20453;-44
2021/01/22 04:23:20;;;;;;;3.65;1.30;;;11.10;99.90;;;;;;5029007;28;20613;-44
2021/01/22 04:25:47;;;;;;;1.90;1.20;;;11.10;99.90;;;;;;5027843;28;20032;-43
2021/01/22 04:28:13;;;;;;;1.13;1.00;;;11.10;99.90;;;;;;5027917;28;20025;-44
2021/01/22 04:30:38;;;;;;;1.10;1.02;;;11.00;99.90;;;;;;5028757;28;20017;-43
2021/01/22 04:33:04;;;;;;;4.32;1.00;;;11.00;99.90;;;;;;5028566;28;20044;-44
2021/01/22 04:35:29;;;;;;;2.05;1.15;;;10.90;99.90;;;;;;5028203;28;20432;-44
2021/01/22 04:37:55;;;;;;;4.05;1.42;;;10.90;99.90;;;;;;5028735;28;20033;-44
2021/01/22 04:40:23;;;;;;;1.73;0.90;;;10.80;99.90;;;;;;5028896;28;20159;-44
2021/01/22 04:42:48;;;;;;;1.83;1.13;;;10.80;99.90;;;;;;5027466;28;20097;-44
2021/01/22 04:45:14;;;;;;;2.92;1.30;;;10.70;99.90;;;;;;5027915;28;20108;-44
2021/01/22 04:47:41;;;;;;;4.68;1.20;;;10.70;99.90;;;;;;5028767;28;20029;-44
2021/01/22 04:50:11;;;;;;;3.70;1.10;;;10.70;99.90;;;;;;5028490;28;20100;-43
2021/01/22 04:52:37;;;;;;;6.43;1.30;;;10.60;99.90;;;;;;5027068;28;20441;-44
2021/01/22 04:55:06;;;;;;;1.00;0.82;;;10.70;99.90;;;;;;5027855;28;20272;-44
2021/01/22 04:57:35;;;;;;;2.10;1.08;;;10.70;99.90;;;;;;5025962;28;20064;-44
2021/01/22 05:00:04;;;;;;;2.30;1.20;;;10.70;99.90;;;;;;5025105;28;20117;-43
2021/01/22 05:02:29;;;;;;;1.35;0.80;;;10.60;99.90;;;;;;5027716;28;20108;-43
2021/01/22 05:04:56;;;;;;;2.92;1.00;;;10.60;99.90;;;;;;5025966;28;20157;-45
2021/01/22 05:07:22;;;;;;;2.60;0.90;;;10.70;99.90;;;;;;5028078;28;20072;-44
2021/01/22 05:09:47;;;;;;;1.45;1.00;;;10.70;99.90;;;;;;5026671;28;20462;-43
2021/01/22 05:12:14;;;;;;;3.00;1.00;;;10.70;99.90;;;;;;5027630;28;20022;-45
2021/01/22 05:14:39;;;;;;;2.67;1.10;;;10.70;99.90;;;;;;5025683;28;20625;-46
2021/01/22 05:17:09;;;;;;;4.00;1.35;;;10.80;99.90;;;;;;5028003;28;20060;-44
2021/01/22 05:19:39;;;;;;;1.02;0.98;;;10.80;99.90;;;;;;5025498;28;20026;-44
2021/01/22 05:22:06;;;;;;;1.45;0.80;;;10.80;99.90;;;;;;5027748;28;20034;-44
2021/01/22 05:24:36;;;;;;;1.65;1.08;;;10.80;99.90;;;;;;5026703;28;20057;-44
2021/01/22 05:27:05;;;;;;;1.98;1.00;;;10.80;99.90;;;;;;5025745;28;20048;-45
2021/01/22 05:29:32;;;;;;;1.30;0.98;;;10.80;99.90;;;;;;5026485;28;20045;-44
2021/01/22 05:32:00;;;;;;;2.78;1.30;;;10.80;99.90;;;;;;5024364;28;20388;-44
2021/01/22 05:34:46;;;;;;;3.63;1.40;;;10.80;99.90;;;;;;5025895;28;20064;-44
2021/01/22 05:37:12;;;;;;;1.25;0.93;;;11.00;99.90;;;;;;5026091;28;20021;-43
2021/01/22 05:39:38;;;;;;;2.85;0.90;;;11.00;99.90;;;;;;5026455;28;20525;-44
2021/01/22 05:42:03;;;;;;;1.70;0.57;;;11.00;99.90;;;;;;5026538;28;20109;-44
2021/01/22 05:44:30;;;;;;;1.90;0.70;;;10.60;99.90;;;;;;5025873;28;20033;-43
2021/01/22 05:47:07;;;;;;;1.02;0.75;;;9.90;99.90;;;;;;5026366;28;20037;-44
2021/01/22 05:49:33;;;;;;;2.58;0.60;;;9.50;99.90;;;;;;5026861;28;20064;-44
2021/01/22 05:51:59;;;;;;;3.78;0.70;;;9.20;99.90;;;;;;5027318;28;20030;-48
2021/01/22 05:54:32;;;;;;;6.85;1.00;;;8.70;99.90;;;;;;5028485;28;20018;-43
2021/01/22 05:56:58;;;;;;;1.35;0.90;;;8.40;99.90;;;;;;5030393;28;20597;-43
2021/01/22 05:59:23;;;;;;;2.35;1.33;;;8.10;99.90;;;;;;5031124;28;20040;-44
2021/01/22 06:01:48;;;;;;;3.22;1.20;;;7.90;99.90;;;;;;5031511;28;20025;-44
2021/01/22 06:04:14;;;;;;;1.15;0.90;;;7.80;99.90;;;;;;5031083;28;20041;-44
2021/01/22 06:06:39;;;;;;;0.68;0.55;;;7.70;99.90;;;;;;5030514;28;20033;-43
2021/01/22 06:09:07;;;;;;;0.20;0.20;;;7.40;99.90;;;;;;5030986;28;20025;-44
2021/01/22 06:11:33;;;;;;;0.50;0.30;;;7.20;99.90;;;;;;5030712;28;20101;-43
2021/01/22 06:14:03;;;;;;;0.57;0.52;;;6.90;99.90;;;;;;5029523;28;20495;-43
2021/01/22 06:16:29;;;;;;;3.72;0.50;;;6.70;99.90;;;;;;5029665;28;20061;-43
2021/01/22 06:19:08;;;;;;;0.40;0.40;;;6.50;99.90;;;;;;5029950;28;20029;-45
2021/01/22 06:21:40;;;;;;;0.40;0.40;;;6.40;99.90;;;;;;5029322;28;20025;-44
2021/01/22 06:24:06;;;;;;;0.77;0.43;;;6.30;99.90;;;;;;5028829;28;20030;-44
2021/01/22 06:26:36;;;;;;;1.58;0.32;;;6.30;99.90;;;;;;5029248;28;20056;-44
2021/01/22 06:29:05;;;;;;;0.75;0.50;;;6.20;99.90;;;;;;5029269;28;20038;-45
2021/01/22 06:31:31;;;;;;;2.20;0.60;;;6.10;99.90;;;;;;5027622;28;20029;-44
2021/01/22 06:33:57;;;;;;;2.17;0.60;;;6.10;99.90;;;;;;5029495;28;20025;-44
2021/01/22 06:36:24;;;;;;;0.55;0.50;;;6.00;99.90;;;;;;5027712;28;20030;-42
2021/01/22 06:38:50;;;;;;;0.82;0.40;;;5.90;99.90;;;;;;5029424;28;20029;-43
2021/01/22 06:41:17;;;;;;;0.60;0.60;;;5.90;99.90;;;;;;5026860;28;20271;-44
2021/01/22 06:43:43;;;;;;;2.30;0.80;;;5.70;99.90;;;;;;5029395;28;20583;-45
2021/01/22 06:46:12;;;;;;;1.33;0.70;;;5.70;99.90;;;;;;5028861;28;20045;-44
2021/01/22 06:48:53;;;;;;;0.60;0.60;;;5.70;99.90;;;;;;5026714;28;20364;-43
2021/01/22 06:51:20;;;;;;;0.52;0.52;;;5.70;99.90;;;;;;5027251;28;20033;-44
2021/01/22 06:54:11;;;;;;;0.80;0.80;;;5.60;99.90;;;;;;5029349;28;20276;-43
2021/01/22 06:56:47;;;;;;;2.15;0.88;;;5.50;99.90;;;;;;5025629;28;20483;-43
2021/01/22 06:59:19;;;;;;;0.80;0.80;;;5.50;99.90;;;;;;5029257;28;20031;-45
2021/01/22 07:01:45;;;;;;;1.00;0.90;;;5.50;99.90;;;;;;5027647;28;20018;-45
2021/01/22 07:04:31;;;;;;;1.55;1.45;;;5.40;99.90;;;;;;5029156;28;20034;-45
2021/01/22 07:06:58;;;;;;;2.30;0.90;;;5.40;99.90;;;;;;5026236;28;20017;-44
2021/01/22 07:09:41;;;;;;;2.63;1.20;;;5.40;99.90;;;;;;5028725;28;20637;-43
2021/01/22 07:12:14;;;;;;;1.98;1.35;;;5.40;99.90;;;;;;5027860;28;20183;-44
2021/01/22 07:14:40;;;;;;;4.88;1.77;;;5.40;99.90;;;;;;5024809;28;20052;-44
2021/01/22 07:17:29;;;;;;;2.20;1.90;;;5.40;99.90;;;;;;5028771;28;20025;-43
2021/01/22 07:20:08;;;;;;;2.65;2.00;;;5.40;99.90;;;;;;5027414;28;20461;-45
2021/01/22 07:22:48;;;;;;;3.25;2.00;;;5.30;99.90;;;;;;5028657;28;20104;-43
2021/01/22 07:25:14;;;;;;;3.08;2.65;;;5.40;99.90;;;;;;5028115;28;20087;-44
2021/01/22 07:27:40;;;;;;;3.08;2.10;;;5.30;99.90;;;;;;5028238;28;20446;-46
2021/01/22 07:30:10;;;;;;;3.38;1.98;;;5.30;99.90;;;;;;5028336;28;20150;-43
2021/01/22 07:32:37;;;;;;;3.55;2.17;;;5.30;99.90;;;;;;5026287;28;20479;-44
2021/01/22 07:35:03;;;;;;;4.15;2.22;;;5.40;99.90;;;;;;5029210;28;20034;-44
2021/01/22 07:37:38;;;;;;;3.38;2.33;;;5.40;99.90;;;;;;5029842;28;20022;-43
2021/01/22 07:40:09;;;;;;;3.45;2.40;;;5.40;99.90;;;;;;5031511;28;20032;-44
2021/01/22 07:42:36;;;;;;;1.90;1.70;;;5.30;99.90;;;;;;5029315;28;20068;-45
2021/01/22 07:45:06;;;;;;;2.00;1.73;;;5.40;99.90;;;;;;5029406;28;20112;-44
2021/01/22 07:47:34;;;;;;;1.90;1.58;;;5.40;99.90;;;;;;5024975;28;20037;-45
2021/01/22 07:50:01;;;;;;;2.05;1.55;;;5.40;99.90;;;;;;5023466;28;20129;-44
2021/01/22 07:52:27;;;;;;;1.42;1.15;;;5.30;99.90;;;;;;5012277;28;20072;-44
2021/01/22 07:54:53;;;;;;;1.52;1.10;;;5.30;99.90;;;;;;5026675;28;20044;-47
2021/01/22 07:57:23;;;;;;;1.30;1.10;;;5.30;99.90;;;;;;5017283;28;20033;-44
2021/01/22 07:59:50;;;;;;;2.70;1.25;;;5.40;99.90;;;;;;5025786;28;20064;-44
2021/01/22 08:02:20;;;;;;;1.17;1.10;;;5.40;99.90;;;;;;5030099;28;20065;-44
2021/01/22 08:04:55;;;;;;;1.10;1.00;;;5.40;99.90;;;;;;5027305;28;20479;-44
2021/01/22 08:07:35;;;;;;;3.90;1.23;;;5.30;99.90;;;;;;5030345;28;20029;-44
2021/01/22 08:10:01;;;;;;;1.10;1.00;;;5.30;99.90;;;;;;5030089;28;20598;-44
2021/01/22 08:12:27;;;;;;;1.45;1.10;;;5.30;99.90;;;;;;5030163;28;20380;-45
2021/01/22 08:14:53;;;;;;;2.63;1.05;;;5.40;99.90;;;;;;5029601;28;20024;-45
2021/01/22 08:17:19;;;;;;;1.77;1.20;;;5.40;99.90;;;;;;5029483;28;20037;-45
2021/01/22 08:19:45;;;;;;;3.50;1.10;;;5.40;99.90;;;;;;5027484;28;20029;-44
2021/01/22 08:22:15;;;;;;;1.08;0.80;;;5.50;99.90;;;;;;5030047;28;20056;-44
2021/01/22 08:24:49;;;;;;;1.77;1.08;;;5.50;99.90;;;;;;5029713;28;20021;-43
2021/01/22 08:27:18;;;;;;;1.73;0.82;;;5.50;99.90;;;;;;5030574;28;20026;-45
2021/01/22 08:29:44;;;;;;;1.42;0.88;;;5.60;99.90;;;;;;5030339;28;20052;-46
2021/01/22 08:32:12;;;;;;;1.48;0.98;;;5.60;99.90;;;;;;5028601;28;20453;-43
2021/01/22 08:34:38;;;;;;;1.52;0.90;;;5.60;99.90;;;;;;5028206;28;20022;-44
2021/01/22 08:37:05;;;;;;;1.77;0.90;;;5.70;99.90;;;;;;5028621;28;20029;-44
2021/01/22 08:39:46;;;;;;;2.55;1.00;;;5.60;99.90;;;;;;5027591;28;20021;-44
2021/01/22 08:42:12;;;;;;;3.45;1.15;;;5.70;99.90;;;;;;5027275;28;20036;-44
2021/01/22 08:44:55;;;;;;;2.08;1.20;;;5.70;99.90;;;;;;5028965;28;20030;-45
2021/01/22 08:47:21;;;;;;;1.73;0.82;;;5.70;99.90;;;;;;5029104;28;20083;-44
2021/01/22 08:50:01;;;;;;;1.08;0.98;;;5.70;99.90;;;;;;5029905;28;20497;-44
2021/01/22 08:52:28;;;;;;;1.37;1.00;;;5.80;99.90;;;;;;5029569;28;20018;-43
2021/01/22 08:54:57;;;;;;;2.65;0.95;;;5.80;99.90;;;;;;5028772;28;20038;-44
2021/01/22 08:57:23;;;;;;;1.55;1.05;;;5.80;99.90;;;;;;5027846;28;20034;-46
2021/01/22 08:59:59;;;;;;;1.77;1.05;;;5.80;99.90;;;;;;5027979;28;20021;-46
2021/01/22 09:02:38;;;;;;;3.30;1.17;;;5.90;99.90;;;;;;5023051;28;20071;-46
2021/01/22 09:05:12;;;;;;;1.15;0.90;;;5.90;99.90;;;;;;5023717;28;20534;-45
2021/01/22 09:07:39;;;;;;;2.60;1.17;;;5.90;99.90;;;;;;5025447;28;20088;-46
2021/01/22 09:10:24;;;;;;;2.47;1.15;;;6.00;99.90;;;;;;5027798;28;20075;-46
2021/01/22 09:12:50;;;;;;;2.53;1.10;;;6.00;99.90;;;;;;5027568;28;20033;-46
2021/01/22 09:15:16;;;;;;;2.25;1.20;;;6.10;99.90;;;;;;5027057;28;20526;-46
2021/01/22 09:17:50;;;;;;;3.97;1.40;;;6.10;99.90;;;;;;5027057;28;20025;-45
2021/01/22 09:20:26;;;;;;;3.13;1.20;;;6.10;99.90;;;;;;5026061;28;20021;-46
2021/01/22 09:22:54;;;;;;;1.70;1.02;;;6.20;99.90;;;;;;5027400;28;20033;-45
2021/01/22 09:25:23;;;;;;;2.58;1.48;;;6.20;99.90;;;;;;5026566;28;20053;-46
2021/01/22 09:27:50;;;;;;;3.85;1.40;;;6.20;99.90;;;;;;5025859;28;20021;-47
2021/01/22 09:30:21;;;;;;;2.30;1.20;;;6.20;99.90;;;;;;5030143;28;20017;-45
2021/01/22 09:32:49;;;;;;;2.17;1.55;;;6.30;99.90;;;;;;5030756;28;20033;-46
2021/01/22 09:35:16;;;;;;;2.70;1.20;;;6.30;99.90;;;;;;5030430;28;20387;-46
2021/01/22 09:37:42;;;;;;;3.33;1.50;;;6.30;99.90;;;;;;5031097;28;20017;-45
2021/01/22 09:40:09;;;;;;;3.63;1.70;;;6.30;99.90;;;;;;5031574;28;20032;-48
2021/01/22 09:42:35;;;;;;;3.83;1.10;;;6.30;99.90;;;;;;5031289;28;20045;-44
2021/01/22 09:45:01;;;;;;;2.25;1.33;;;6.30;99.90;;;;;;5030818;28;20029;-46
2021/01/22 09:47:26;;;;;;;2.13;1.55;;;6.30;99.90;;;;;;5031067;28;20036;-45
2021/01/22 09:49:52;;;;;;;1.77;1.48;;;6.40;99.90;;;;;;5031218;28;20418;-47
2021/01/22 09:52:17;;;;;;;5.07;1.73;;;6.40;99.90;;;;;;5031008;28;20073;-46
2021/01/22 09:54:45;;;;;;;3.47;1.42;;;6.40;99.90;;;;;;5030639;28;20056;-46
2021/01/22 09:57:11;;;;;;;3.38;1.60;;;6.40;99.90;;;;;;5030233;28;20036;-45
2021/01/22 09:59:37;;;;;;;3.28;1.48;;;6.40;99.90;;;;;;5030570;28;20687;-46
2021/01/22 10:02:03;;;;;;;5.07;1.58;;;6.50;99.90;;;;;;5030934;28;20735;-45
2021/01/22 10:04:28;;;;;;;2.90;1.27;;;6.60;99.90;;;;;;5021536;28;20033;-46
2021/01/22 10:06:55;;;;;;;2.60;1.65;;;6.70;99.90;;;;;;5029186;28;20067;-46
2021/01/22 10:09:22;;;;;;;4.03;1.50;;;6.80;99.90;;;;;;5029462;28;20053;-46
2021/01/22 10:11:47;;;;;;;2.53;1.80;;;6.90;99.90;;;;;;5027755;28;20018;-46
2021/01/22 10:14:13;;;;;;;3.78;1.90;;;7.00;99.90;;;;;;5030135;28;20029;-46
2021/01/22 10:16:38;;;;;;;4.25;1.73;;;7.20;99.90;;;;;;5029905;28;20026;-46
2021/01/22 10:19:04;;;;;;;4.45;1.25;;;7.30;99.90;;;;;;5030428;28;20048;-46
2021/01/22 10:21:30;;;;;;;2.00;1.67;;;7.20;99.90;;;;;;5031190;28;20083;-49
2021/01/22 10:23:56;;;;;;;1.95;1.50;;;7.30;99.90;;;;;;5031096;28;20037;-45
2021/01/22 10:26:23;;;;;;;1.95;1.73;;;7.30;99.90;;;;;;5030290;28;20026;-47
2021/01/22 10:28:49;;;;;;;4.13;1.70;;;7.30;99.90;;;;;;5030088;28;20053;-46
2021/01/22 10:31:15;;;;;;;2.53;1.73;;;7.20;99.90;;;;;;5030756;28;20483;-47
2021/01/22 10:33:41;;;;;;;2.72;1.98;;;7.20;99.90;;;;;;5030082;28;20057;-46
2021/01/22 10:36:07;;;;;;;4.43;2.30;;;7.30;99.90;;;;;;5030254;28;20057;-45
2021/01/22 10:38:33;;;;;;;5.47;2.10;;;7.30;99.90;;;;;;5030691;28;20049;-44
2021/01/22 10:40:59;;;;;;;4.05;2.47;;;7.40;99.90;;;;;;5028358;28;20018;-46
2021/01/22 10:43:24;;;;;;;6.22;3.20;;;7.30;99.90;;;;;;5030431;28;20029;-44
2021/01/22 10:45:50;;;;;;;3.38;2.55;;;7.40;99.90;;;;;;5030509;28;20028;-45
2021/01/22 10:48:19;;;;;;;4.45;2.85;;;7.40;99.90;;;;;;5030589;28;20592;-45
2021/01/22 10:50:48;;;;;;;5.00;2.78;;;7.30;99.90;;;;;;5030666;28;20483;-45
2021/01/22 10:53:13;;;;;;;4.35;2.72;;;7.20;99.90;;;;;;5030560;28;20053;-47
2021/01/22 10:55:39;;;;;;;7.47;3.60;;;7.10;99.90;;;;;;5029614;28;20049;-47
2021/01/22 10:58:04;;;;;;;5.60;2.70;;;7.00;99.90;;;;;;5029670;28;20060;-46
2021/01/22 11:00:32;;;;;;;3.53;2.55;;;7.00;99.90;;;;;;5030464;28;20026;-46
2021/01/22 11:02:57;;;;;;;7.25;2.80;;;7.10;99.90;;;;;;5030434;28;20055;-45
2021/01/22 11:05:23;;;;;;;11.40;4.47;;;7.10;99.90;;;;;;5028498;28;20033;-46
2021/01/22 11:07:48;;;;;;;7.18;3.03;;;7.20;99.90;;;;;;5030485;28;20040;-45
2021/01/22 11:10:14;;;;;;;4.55;2.50;;;7.10;99.90;;;;;;5029279;28;20379;-45
2021/01/22 11:12:39;;;;;;;6.60;3.33;;;7.20;99.90;;;;;;5029596;28;20506;-45
2021/01/22 11:15:06;;;;;;;2.90;2.42;;;7.20;99.90;;;;;;5029416;28;20030;-46
2021/01/22 11:17:31;;;;;;;11.10;3.53;;;7.20;99.90;;;;;;5029059;28;20037;-46
2021/01/22 11:20:02;;;;;;;6.82;3.22;;;7.30;99.90;;;;;;5030070;28;20034;-45
2021/01/22 11:22:27;;;;;;;4.78;3.00;;;7.20;99.90;;;;;;5029873;28;20025;-46
2021/01/22 11:24:53;;;;;;;8.80;3.50;;;7.20;99.90;;;;;;5029395;28;20037;-44
2021/01/22 11:27:18;;;;;;;6.80;3.30;;;7.10;99.90;;;;;;5022752;28;20343;-45
2021/01/22 11:29:44;;;;;;;4.78;2.90;;;7.10;99.90;;;;;;5026311;28;20034;-45
2021/01/22 11:32:09;;;;;;;6.47;3.30;;;7.10;99.90;;;;;;5028728;28;20026;-44
2021/01/22 11:34:35;;;;;;;5.50;3.38;;;7.00;99.90;;;;;;5028193;28;20044;-45
2021/01/22 11:37:00;;;;;;;7.60;3.80;;;7.10;99.90;;;;;;5028609;28;20041;-45
2021/01/22 11:39:26;;;;;;;6.13;3.83;;;7.20;99.90;;;;;;5027703;28;20253;-45
2021/01/22 11:41:52;;;;;;;5.65;3.50;;;7.20;99.90;;;;;;5027889;28;20037;-46
2021/01/22 11:44:18;;;;;;;7.07;3.67;;;7.30;99.90;;;;;;5028826;28;20513;-45
2021/01/22 11:46:43;;;;;;;5.15;3.25;;;7.40;99.90;;;;;;5028342;28;20029;-45
2021/01/22 11:49:09;;;;;;;5.40;3.25;;;7.50;99.90;;;;;;5028346;28;20026;-44
2021/01/22 11:51:35;;;;;;;7.85;3.35;;;7.60;99.90;;;;;;5027608;28;20036;-45
2021/01/22 11:54:01;;;;;;;8.00;3.50;;;7.80;99.90;;;;;;5028334;28;20557;-44
2021/01/22 11:56:27;;;;;;;7.10;3.65;;;7.90;99.90;;;;;;5027271;28;20233;-47
2021/01/22 11:58:52;;;;;;;8.23;4.03;;;8.40;99.90;;;;;;5028781;28;20033;-46
2021/01/22 12:01:18;;;;;;;7.75;3.78;;;8.40;99.90;;;;;;5029269;28;20474;-44
2021/01/22 12:03:43;;;;;;;5.00;3.03;;;8.50;99.90;;;;;;5028092;28;20026;-44
2021/01/22 12:06:09;;;;;;;5.15;3.38;;;8.40;99.90;;;;;;5029818;28;20025;-45
2021/01/22 12:08:35;;;;;;;9.00;3.80;;;8.20;99.90;;;;;;5025180;28;20103;-45
2021/01/22 12:11:00;;;;;;;5.28;3.38;;;8.10;99.90;;;;;;5008312;28;20026;-43
2021/01/22 12:13:26;;;;;;;6.05;3.95;;;8.00;99.90;;;;;;5008488;28;20045;-45
2021/01/22 12:15:51;;;;;;;6.25;3.83;;;7.90;99.90;;;;;;5008466;28;20062;-45
2021/01/22 12:18:17;;;;;;;6.53;3.67;;;7.90;99.90;;;;;;5018671;28;20042;-44
2021/01/22 12:20:43;;;;;;;6.47;3.47;;;7.90;99.90;;;;;;5028344;28;20477;-47
2021/01/22 12:23:09;;;;;;;5.50;3.30;;;7.90;99.90;;;;;;5028496;28;20021;-45
2021/01/22 12:25:35;;;;;;;4.47;3.67;;;7.80;99.90;;;;;;5026611;28;20025;-46
2021/01/22 12:28:00;;;;;;;7.72;3.58;;;7.80;99.90;;;;;;5028345;28;20053;-47
2021/01/22 12:30:26;;;;;;;7.65;3.85;;;7.80;99.90;;;;;;5020479;28;20033;-45
2021/01/22 12:32:52;;;;;;;5.85;3.60;;;7.80;99.90;;;;;;5029443;28;20047;-47
2021/01/22 12:35:17;;;;;;;8.68;4.40;;;7.70;99.90;;;;;;5028502;28;20029;-49
2021/01/22 12:37:43;;;;;;;7.35;4.30;;;7.60;99.90;;;;;;5028146;28;20264;-46
2021/01/22 12:40:10;;;;;;;8.20;4.00;;;7.60;99.90;;;;;;5027696;28;20356;-45
2021/01/22 12:42:35;;;;;;;6.40;3.80;;;7.50;99.90;;;;;;5027412;28;20033;-47
2021/01/22 12:45:01;;;;;;;12.32;4.45;;;7.50;99.90;;;;;;5025043;28;20026;-48
2021/01/22 12:47:26;;;;;;;10.18;4.35;;;7.40;99.90;;;;;;5021630;28;20038;-45
2021/01/22 12:49:53;;;;;;;8.82;3.97;;;7.40;99.90;;;;;;5027647;28;20025;-47
2021/01/22 12:52:18;;;;;;;10.00;4.53;;;7.40;99.90;;;;;;5027770;28;20038;-46
2021/01/22 12:54:43;;;;;;;8.88;4.20;;;7.40;99.90;;;;;;5027238;28;20453;-45